createdAt,value
2022-08-06T00:00:03.488Z,13.10
2022-08-06T00:00:29.925Z,13.07
2022-08-06T00:01:29.104Z,13.04
2022-08-06T00:02:31.351Z,13.01
2022-08-06T00:03:29.363Z,12.99
2022-08-06T00:04:29.415Z,12.96
2022-08-06T00:05:30.001Z,12.93
2022-08-06T00:06:30.686Z,12.91
2022-08-06T00:07:35.788Z,12.88
2022-08-06T00:08:31.013Z,12.85
2022-08-06T00:09:30.042Z,12.82
2022-08-06T00:10:30.692Z,12.79
2022-08-06T00:11:30.285Z,12.77
2022-08-06T00:12:30.838Z,12.74
2022-08-06T00:13:30.562Z,12.72
2022-08-06T00:14:30.632Z,12.70
2022-08-06T00:16:06.107Z,12.68
2022-08-06T00:16:38.687Z,12.65
2022-08-06T00:17:33.095Z,12.62
2022-08-06T00:18:31.182Z,12.59
2022-08-06T00:19:57.812Z,12.56
2022-08-06T00:20:32.338Z,12.54
2022-08-06T00:21:40.987Z,12.51
2022-08-06T00:22:32.588Z,12.49
2022-08-06T00:23:35.141Z,12.46
2022-08-06T00:24:32.857Z,12.42
2022-08-06T00:25:35.678Z,12.38
2022-08-06T00:26:33.137Z,12.35
2022-08-06T00:27:38.650Z,12.32
2022-08-06T00:28:33.477Z,12.29
2022-08-06T00:29:47.175Z,12.26
2022-08-06T00:30:34.547Z,12.24
2022-08-06T00:31:32.728Z,12.22
2022-08-06T00:32:33.080Z,12.21
2022-08-06T00:33:50.219Z,12.21
2022-08-06T00:34:34.276Z,12.20
2022-08-06T00:35:33.190Z,12.20
2022-08-06T00:36:33.562Z,12.19
2022-08-06T00:37:56.877Z,12.18
2022-08-06T00:38:34.747Z,12.17
2022-08-06T00:39:33.741Z,12.16
2022-08-06T00:40:33.834Z,12.13
2022-08-06T00:41:41.514Z,12.10
2022-08-06T00:42:35.056Z,12.07
2022-08-06T00:43:39.730Z,12.05
2022-08-06T00:44:35.315Z,12.03
2022-08-06T00:45:37.946Z,12.01
2022-08-06T00:46:35.574Z,11.99
2022-08-06T00:48:02.399Z,11.97
2022-08-06T00:48:53.299Z,11.95
2022-08-06T00:49:48.676Z,11.93
2022-08-06T00:50:36.042Z,11.91
2022-08-06T00:51:50.421Z,11.88
2022-08-06T00:52:36.283Z,11.87
2022-08-06T00:53:35.425Z,11.85
2022-08-06T00:54:36.251Z,11.84
2022-08-06T00:55:36.385Z,11.83
2022-08-06T00:56:37.104Z,11.82
2022-08-06T00:57:35.871Z,11.80
2022-08-06T00:58:40.694Z,11.79
2022-08-06T00:59:37.132Z,11.77
2022-08-06T01:00:38.804Z,11.75
2022-08-06T01:01:50.073Z,11.73
2022-08-06T01:02:37.560Z,11.71
2022-08-06T01:03:41.529Z,11.69
2022-08-06T01:04:37.749Z,11.67
2022-08-06T01:06:53.243Z,11.66
2022-08-06T01:06:56.031Z,11.64
2022-08-06T01:07:52.420Z,11.63
2022-08-06T01:08:38.158Z,11.60
2022-08-06T01:09:46.058Z,11.56
2022-08-06T01:10:42.551Z,11.53
2022-08-06T01:11:38.538Z,11.50
2022-08-06T01:12:37.678Z,11.49
2022-08-06T01:14:03.075Z,11.48
2022-08-06T01:14:39.665Z,11.48
2022-08-06T01:16:07.825Z,11.47
2022-08-06T01:16:39.278Z,11.47
2022-08-06T01:17:38.703Z,11.46
2022-08-06T01:18:38.634Z,11.46
2022-08-06T01:21:22.088Z,11.46
2022-08-06T01:21:58.875Z,11.45
2022-08-06T01:21:59.357Z,11.43
2022-08-06T01:22:40.025Z,11.41
2022-08-06T01:23:39.106Z,11.39
2022-08-06T01:24:39.383Z,11.38
2022-08-06T01:25:47.515Z,11.36
2022-08-06T01:26:40.457Z,11.35
2022-08-06T01:27:42.679Z,11.34
2022-08-06T01:28:41.642Z,11.33
2022-08-06T01:29:39.978Z,11.32
2022-08-06T01:30:40.024Z,11.32
2022-08-06T01:31:40.081Z,11.32
2022-08-06T01:32:42.843Z,11.31
2022-08-06T01:33:42.076Z,11.30
2022-08-06T01:34:40.614Z,11.28
2022-08-06T01:35:47.910Z,11.27
2022-08-06T01:36:41.708Z,11.25
2022-08-06T01:37:41.822Z,11.23
2022-08-06T01:38:43.729Z,11.22
2022-08-06T01:40:02.246Z,11.20
2022-08-06T01:40:42.436Z,11.18
2022-08-06T01:41:58.034Z,11.16
2022-08-06T01:42:44.057Z,11.15
2022-08-06T01:44:04.899Z,11.13
2022-08-06T01:44:45.099Z,11.12
2022-08-06T01:45:54.842Z,11.11
2022-08-06T01:46:44.222Z,11.10
2022-08-06T01:47:53.773Z,11.10
2022-08-06T01:48:43.276Z,11.09
2022-08-06T01:50:01.867Z,11.08
2022-08-06T01:50:43.499Z,11.07
2022-08-06T01:52:14.091Z,11.06
2022-08-06T01:53:00.050Z,11.05
2022-08-06T01:54:05.446Z,11.04
2022-08-06T01:54:43.953Z,11.02
2022-08-06T01:55:59.087Z,11.01
2022-08-06T01:56:57.292Z,10.99
2022-08-06T01:58:19.538Z,10.98
2022-08-06T01:58:44.426Z,10.97
2022-08-06T01:59:43.505Z,10.96
2022-08-06T02:00:46.240Z,10.94
2022-08-06T02:01:54.573Z,10.92
2022-08-06T02:02:44.933Z,10.90
2022-08-06T02:03:49.997Z,10.88
2022-08-06T02:04:45.116Z,10.85
2022-08-06T02:05:53.681Z,10.80
2022-08-06T02:06:45.376Z,10.75
2022-08-06T02:08:33.751Z,10.71
2022-08-06T02:08:45.576Z,10.69
2022-08-06T02:09:44.748Z,10.68
2022-08-06T02:10:44.927Z,10.68
2022-08-06T02:12:04.016Z,10.68
2022-08-06T02:12:46.114Z,10.67
2022-08-06T02:13:46.981Z,10.66
2022-08-06T02:14:45.334Z,10.65
2022-08-06T02:15:58.689Z,10.65
2022-08-06T02:16:46.633Z,10.63
2022-08-06T02:18:03.492Z,10.61
2022-08-06T02:18:46.903Z,10.60
2022-08-06T02:19:48.050Z,10.58
2022-08-06T02:20:48.351Z,10.56
2022-08-06T02:21:50.088Z,10.56
2022-08-06T02:22:47.372Z,10.55
2022-08-06T02:23:46.647Z,10.54
2022-08-06T02:24:46.632Z,10.54
2022-08-06T02:25:53.666Z,10.54
2022-08-06T02:26:47.850Z,10.54
2022-08-06T02:27:53.375Z,10.53
2022-08-06T02:28:50.353Z,10.53
2022-08-06T02:30:06.153Z,10.52
2022-08-06T02:30:49.119Z,10.52
2022-08-06T02:31:50.838Z,10.51
2022-08-06T02:32:47.668Z,10.50
2022-08-06T02:34:02.312Z,10.49
2022-08-06T02:34:48.896Z,10.48
2022-08-06T02:35:50.841Z,10.47
2022-08-06T02:36:50.564Z,10.46
2022-08-06T02:38:02.715Z,10.46
2022-08-06T02:38:52.394Z,10.46
2022-08-06T02:39:52.314Z,10.45
2022-08-06T02:40:48.627Z,10.44
2022-08-06T02:41:53.754Z,10.43
2022-08-06T02:42:50.018Z,10.43
2022-08-06T02:43:49.015Z,10.42
2022-08-06T02:44:49.850Z,10.42
2022-08-06T02:45:54.432Z,10.41
2022-08-06T02:46:50.370Z,10.41
2022-08-06T02:48:00.429Z,10.41
2022-08-06T02:48:50.645Z,10.40
2022-08-06T02:49:57.523Z,10.40
2022-08-06T02:50:51.112Z,10.39
2022-08-06T02:52:11.769Z,10.38
2022-08-06T02:52:57.768Z,10.37
2022-08-06T02:54:05.229Z,10.35
2022-08-06T02:54:51.454Z,10.33
2022-08-06T02:55:50.484Z,10.31
2022-08-06T02:56:50.596Z,10.30
2022-08-06T02:57:51.897Z,10.29
2022-08-06T02:58:58.146Z,10.29
2022-08-06T02:59:53.696Z,10.28
2022-08-06T03:00:52.021Z,10.27
2022-08-06T03:01:51.352Z,10.26
2022-08-06T03:02:51.393Z,10.25
2022-08-06T03:03:54.961Z,10.25
2022-08-06T03:04:54.503Z,10.24
2022-08-06T03:05:54.499Z,10.23
2022-08-06T03:06:51.891Z,10.22
2022-08-06T03:07:52.001Z,10.21
2022-08-06T03:08:52.100Z,10.20
2022-08-06T03:09:52.220Z,10.20
2022-08-06T03:10:52.460Z,10.19
2022-08-06T03:11:52.450Z,10.19
2022-08-06T03:12:52.604Z,10.18
2022-08-06T03:13:52.731Z,10.18
2022-08-06T03:15:03.806Z,10.18
2022-08-06T03:15:59.975Z,10.17
2022-08-06T03:16:54.128Z,10.16
2022-08-06T03:17:53.243Z,10.14
2022-08-06T03:19:54.410Z,10.13
2022-08-06T03:19:59.094Z,10.12
2022-08-06T03:20:54.657Z,10.11
2022-08-06T03:21:55.693Z,10.10
2022-08-06T03:22:53.893Z,10.09
2022-08-06T03:23:53.990Z,10.08
2022-08-06T03:24:54.104Z,10.07
2022-08-06T03:25:54.257Z,10.07
2022-08-06T03:26:54.324Z,10.07
2022-08-06T03:28:02.142Z,10.06
2022-08-06T03:28:55.585Z,10.05
2022-08-06T03:29:58.493Z,10.04
2022-08-06T03:30:56.973Z,10.03
2022-08-06T03:31:58.761Z,10.02
2022-08-06T03:32:55.447Z,10.01
2022-08-06T03:33:55.193Z,10.00
2022-08-06T03:34:55.324Z,10.00
2022-08-06T03:35:55.479Z,9.99
2022-08-06T03:36:55.631Z,9.99
2022-08-06T03:37:59.210Z,9.99
2022-08-06T03:38:56.880Z,9.98
2022-08-06T03:39:56.052Z,9.97
2022-08-06T03:40:56.135Z,9.96
2022-08-06T03:42:08.963Z,9.96
2022-08-06T03:42:57.355Z,9.94
2022-08-06T03:44:04.681Z,9.93
2022-08-06T03:44:57.662Z,9.91
2022-08-06T03:45:57.745Z,9.90
2022-08-06T03:46:56.953Z,9.88
2022-08-06T03:48:07.752Z,9.88
2022-08-06T03:48:58.171Z,9.87
2022-08-06T03:49:57.325Z,9.86
2022-08-06T03:50:58.092Z,9.85
2022-08-06T03:51:57.663Z,9.84
2022-08-06T03:52:57.679Z,9.83
2022-08-06T03:53:57.788Z,9.83
2022-08-06T03:54:57.918Z,9.82
2022-08-06T03:55:58.048Z,9.82
2022-08-06T03:56:58.232Z,9.81
2022-08-06T03:57:58.318Z,9.81
2022-08-06T03:58:58.456Z,9.80
2022-08-06T04:00:00.921Z,9.80
2022-08-06T04:00:58.724Z,9.79
2022-08-06T04:01:58.968Z,9.79
2022-08-06T04:03:02.926Z,9.78
2022-08-06T04:03:59.110Z,9.77
2022-08-06T04:04:59.229Z,9.76
2022-08-06T04:05:59.366Z,9.76
2022-08-06T04:07:02.513Z,9.75
2022-08-06T04:07:59.668Z,9.75
2022-08-06T04:08:59.773Z,9.74
2022-08-06T04:10:01.220Z,9.73
2022-08-06T04:11:00.016Z,9.72
2022-08-06T04:12:36.329Z,9.70
2022-08-06T04:13:39.055Z,9.68
2022-08-06T04:14:06.887Z,9.65
2022-08-06T04:15:04.646Z,9.62
2022-08-06T04:16:02.190Z,9.59
2022-08-06T04:17:00.827Z,9.57
2022-08-06T04:18:00.923Z,9.54
2022-08-06T04:19:01.123Z,9.52
2022-08-06T04:20:01.165Z,9.50
2022-08-06T04:21:19.623Z,9.48
2022-08-06T04:23:05.772Z,9.47
2022-08-06T04:23:09.160Z,9.47
2022-08-06T04:24:02.804Z,9.46
2022-08-06T04:25:01.822Z,9.47
2022-08-06T04:26:01.960Z,9.48
2022-08-06T04:27:05.221Z,9.50
2022-08-06T04:28:03.220Z,9.51
2022-08-06T04:29:02.420Z,9.52
2022-08-06T04:30:03.406Z,9.52
2022-08-06T04:31:02.612Z,9.53
2022-08-06T04:32:19.420Z,9.53
2022-08-06T04:33:03.848Z,9.53
2022-08-06T04:34:03.064Z,9.54
2022-08-06T04:36:08.274Z,9.54
2022-08-06T04:36:17.454Z,9.55
2022-08-06T04:37:05.032Z,9.55
2022-08-06T04:38:03.517Z,9.55
2022-08-06T04:39:03.899Z,9.56
2022-08-06T04:40:04.799Z,9.57
2022-08-06T04:41:09.553Z,9.57
2022-08-06T04:42:05.794Z,9.58
2022-08-06T04:43:04.193Z,9.59
2022-08-06T04:44:04.417Z,9.60
2022-08-06T04:46:17.105Z,9.61
2022-08-06T04:46:18.067Z,9.61
2022-08-06T04:47:05.785Z,9.61
2022-08-06T04:48:04.856Z,9.60
2022-08-06T04:49:05.026Z,9.58
2022-08-06T04:50:07.664Z,9.56
2022-08-06T04:51:05.244Z,9.53
2022-08-06T04:52:36.195Z,9.51
2022-08-06T04:53:06.549Z,9.49
2022-08-06T04:54:05.714Z,9.48
2022-08-06T04:55:05.755Z,9.47
2022-08-06T04:56:06.906Z,9.46
2022-08-06T04:57:09.059Z,9.45
2022-08-06T04:58:08.407Z,9.45
2022-08-06T04:59:07.838Z,9.44
2022-08-06T05:00:06.493Z,9.44
2022-08-06T05:01:10.616Z,9.45
2022-08-06T05:02:06.673Z,9.46
2022-08-06T05:03:06.800Z,9.48
2022-08-06T05:04:15.477Z,9.51
2022-08-06T05:05:08.110Z,9.54
2022-08-06T05:06:07.557Z,9.57
2022-08-06T05:07:10.600Z,9.61
2022-08-06T05:08:08.430Z,9.64
2022-08-06T05:09:20.676Z,9.66
2022-08-06T05:10:08.800Z,9.69
2022-08-06T05:11:07.819Z,9.72
2022-08-06T05:12:07.952Z,9.76
2022-08-06T05:13:08.108Z,9.80
2022-08-06T05:14:08.346Z,9.86
2022-08-06T05:15:09.015Z,9.91
2022-08-06T05:16:08.439Z,9.97
2022-08-06T05:17:08.846Z,10.02
2022-08-06T05:18:08.690Z,10.08
2022-08-06T05:19:20.432Z,10.14
2022-08-06T05:20:26.519Z,10.20
2022-08-06T05:21:10.037Z,10.26
2022-08-06T05:22:12.261Z,10.32
2022-08-06T05:23:19.922Z,10.40
2022-08-06T05:24:10.463Z,10.49
2022-08-06T05:25:17.877Z,10.58
2022-08-06T05:26:11.050Z,10.68
2022-08-06T05:27:10.796Z,10.77
2022-08-06T05:28:12.469Z,10.87
2022-08-06T05:29:11.501Z,10.98
2022-08-06T05:30:10.240Z,11.08
2022-08-06T05:31:10.289Z,11.19
2022-08-06T05:32:10.405Z,11.30
2022-08-06T05:33:10.494Z,11.41
2022-08-06T05:34:11.607Z,11.52
2022-08-06T05:35:10.856Z,11.62
2022-08-06T05:36:19.727Z,11.72
2022-08-06T05:37:12.036Z,11.81
2022-08-06T05:38:11.508Z,11.89
2022-08-06T05:39:56.547Z,11.95
2022-08-06T05:40:12.390Z,12.00
2022-08-06T05:41:11.600Z,12.05
2022-08-06T05:42:11.706Z,12.10
2022-08-06T05:43:11.810Z,12.15
2022-08-06T05:44:11.892Z,12.19
2022-08-06T05:45:12.017Z,12.24
2022-08-06T05:46:12.142Z,12.30
2022-08-06T05:47:12.220Z,12.34
2022-08-06T05:48:12.338Z,12.38
2022-08-06T05:49:55.099Z,12.42
2022-08-06T05:50:13.575Z,12.46
2022-08-06T05:51:12.818Z,12.50
2022-08-06T05:52:12.974Z,12.52
2022-08-06T05:53:12.985Z,12.53
2022-08-06T05:54:13.089Z,12.52
2022-08-06T05:55:13.189Z,12.51
2022-08-06T05:56:13.498Z,12.49
2022-08-06T05:57:16.444Z,12.46
2022-08-06T05:58:13.718Z,12.46
2022-08-06T05:59:29.503Z,12.49
2022-08-06T06:00:41.588Z,12.54
2022-08-06T06:01:14.928Z,12.62
2022-08-06T06:02:14.112Z,12.73
2022-08-06T06:03:23.873Z,12.83
2022-08-06T06:04:15.380Z,12.91
2022-08-06T06:06:05.844Z,12.99
2022-08-06T06:06:17.669Z,13.07
2022-08-06T06:07:18.108Z,13.14
2022-08-06T06:08:15.920Z,13.20
2022-08-06T06:09:15.977Z,13.26
2022-08-06T06:10:16.494Z,13.33
2022-08-06T06:11:15.285Z,13.39
2022-08-06T06:12:17.817Z,13.47
2022-08-06T06:13:25.564Z,13.54
2022-08-06T06:14:16.746Z,13.60
2022-08-06T06:16:02.030Z,13.68
2022-08-06T06:16:22.367Z,13.77
2022-08-06T06:17:16.985Z,13.85
2022-08-06T06:18:34.108Z,13.92
2022-08-06T06:19:17.327Z,13.99
2022-08-06T06:20:16.415Z,14.07
2022-08-06T06:21:18.723Z,14.13
2022-08-06T06:22:17.575Z,14.18
2022-08-06T06:23:16.702Z,14.23
2022-08-06T06:24:19.615Z,14.28
2022-08-06T06:25:17.019Z,14.36
2022-08-06T06:26:32.628Z,14.44
2022-08-06T06:27:36.113Z,14.51
2022-08-06T06:28:27.870Z,14.57
2022-08-06T06:29:33.793Z,14.62
2022-08-06T06:30:33.239Z,14.65
2022-08-06T06:32:04.609Z,14.69
2022-08-06T06:32:30.752Z,14.72
2022-08-06T06:33:41.265Z,14.75
2022-08-06T06:34:19.154Z,14.81
2022-08-06T06:35:18.094Z,14.89
2022-08-06T06:36:18.211Z,14.98
2022-08-06T06:37:18.322Z,15.12
2022-08-06T06:38:18.544Z,15.30
2022-08-06T06:39:18.561Z,15.49
2022-08-06T06:40:18.824Z,15.63
2022-08-06T06:41:20.381Z,15.72
2022-08-06T06:42:32.713Z,15.82
2022-08-06T06:43:20.120Z,15.93
2022-08-06T06:44:24.250Z,16.01
2022-08-06T06:46:04.951Z,16.08
2022-08-06T06:46:36.476Z,16.08
2022-08-06T06:47:20.560Z,15.96
2022-08-06T06:48:20.820Z,15.79
2022-08-06T06:49:59.532Z,15.64
2022-08-06T06:50:20.987Z,15.57
2022-08-06T06:51:40.652Z,15.61
2022-08-06T06:52:26.752Z,15.74
2022-08-06T06:53:23.901Z,15.86
2022-08-06T06:54:23.103Z,15.95
2022-08-06T06:55:36.786Z,16.00
2022-08-06T06:56:22.010Z,16.05
2022-08-06T06:57:23.419Z,16.11
2022-08-06T06:58:24.598Z,16.18
2022-08-06T06:59:21.089Z,16.28
2022-08-06T07:00:46.317Z,16.40
2022-08-06T07:01:28.633Z,16.54
2022-08-06T07:02:23.795Z,16.69
2022-08-06T07:03:22.588Z,16.82
2022-08-06T07:04:22.658Z,16.90
2022-08-06T07:06:03.062Z,16.93
2022-08-06T07:06:31.596Z,16.94
2022-08-06T07:07:23.625Z,16.98
2022-08-06T07:08:30.251Z,17.07
2022-08-06T07:09:40.196Z,17.18
2022-08-06T07:10:23.378Z,17.27
2022-08-06T07:11:22.468Z,17.34
2022-08-06T07:12:22.587Z,17.36
2022-08-06T07:13:23.234Z,17.38
2022-08-06T07:14:24.812Z,17.43
2022-08-06T07:15:24.157Z,17.51
2022-08-06T07:16:35.753Z,17.62
2022-08-06T07:17:45.481Z,17.70
2022-08-06T07:18:28.477Z,17.78
2022-08-06T07:19:24.557Z,17.87
2022-08-06T07:20:26.080Z,17.94
2022-08-06T07:21:23.688Z,17.96
2022-08-06T07:22:24.255Z,17.96
2022-08-06T07:24:07.449Z,17.97
2022-08-06T07:24:36.769Z,18.02
2022-08-06T07:25:25.197Z,18.10
2022-08-06T07:26:24.322Z,18.20
2022-08-06T07:27:25.015Z,18.25
2022-08-06T07:28:25.590Z,18.26
2022-08-06T07:29:49.053Z,18.27
2022-08-06T07:30:26.084Z,18.32
2022-08-06T07:31:24.919Z,18.33
2022-08-06T07:32:31.253Z,18.26
2022-08-06T07:33:26.176Z,18.17
2022-08-06T07:34:25.309Z,18.14
2022-08-06T07:35:25.544Z,18.15
2022-08-06T07:36:26.790Z,18.23
2022-08-06T07:37:25.833Z,18.39
2022-08-06T07:38:26.768Z,18.58
2022-08-06T07:39:26.131Z,18.74
2022-08-06T07:40:28.577Z,18.83
2022-08-06T07:41:32.065Z,18.86
2022-08-06T07:42:27.358Z,18.88
2022-08-06T07:43:32.774Z,18.95
2022-08-06T07:44:29.257Z,19.09
2022-08-06T07:45:32.446Z,19.25
2022-08-06T07:46:27.845Z,19.38
2022-08-06T07:47:37.063Z,19.52
2022-08-06T07:48:28.114Z,19.61
2022-08-06T07:49:31.917Z,19.66
2022-08-06T07:50:28.515Z,19.70
2022-08-06T07:51:33.765Z,19.68
2022-08-06T07:52:28.883Z,19.62
2022-08-06T07:53:52.746Z,19.58
2022-08-06T07:54:34.282Z,19.57
2022-08-06T07:55:31.530Z,19.60
2022-08-06T07:56:29.650Z,19.67
2022-08-06T07:57:32.699Z,19.78
2022-08-06T07:58:30.628Z,19.86
2022-08-06T07:59:30.621Z,19.92
2022-08-06T08:00:28.915Z,20.00
2022-08-06T08:01:36.353Z,20.01
2022-08-06T08:02:30.274Z,19.94
2022-08-06T08:03:55.997Z,19.83
2022-08-06T08:04:35.788Z,19.73
2022-08-06T08:05:39.057Z,19.69
2022-08-06T08:06:32.039Z,19.73
2022-08-06T08:07:37.965Z,19.77
2022-08-06T08:08:30.671Z,19.81
2022-08-06T08:10:01.273Z,19.88
2022-08-06T08:10:30.843Z,19.96
2022-08-06T08:11:38.228Z,20.00
2022-08-06T08:12:34.765Z,20.07
2022-08-06T08:13:41.796Z,20.19
2022-08-06T08:14:31.273Z,20.36
2022-08-06T08:15:30.392Z,20.58
2022-08-06T08:16:32.755Z,20.83
2022-08-06T08:17:34.900Z,21.04
2022-08-06T08:18:30.783Z,21.13
2022-08-06T08:19:34.919Z,21.13
2022-08-06T08:20:33.974Z,21.08
2022-08-06T08:21:31.293Z,21.00
2022-08-06T08:22:31.312Z,20.94
2022-08-06T08:23:36.449Z,20.84
2022-08-06T08:24:32.594Z,20.70
2022-08-06T08:25:40.372Z,20.61
2022-08-06T08:27:01.961Z,20.60
2022-08-06T08:27:33.171Z,20.56
2022-08-06T08:28:32.292Z,20.46
2022-08-06T08:29:34.766Z,20.44
2022-08-06T08:30:32.326Z,20.50
2022-08-06T08:31:32.422Z,20.56
2022-08-06T08:32:32.563Z,20.56
2022-08-06T08:33:33.915Z,20.54
2022-08-06T08:34:33.836Z,20.57
2022-08-06T08:35:37.290Z,20.61
2022-08-06T08:36:34.061Z,20.70
2022-08-06T08:37:34.043Z,20.83
2022-08-06T08:38:33.334Z,20.97
2022-08-06T08:39:33.812Z,21.06
2022-08-06T08:40:33.561Z,21.11
2022-08-06T08:41:49.336Z,21.14
2022-08-06T08:42:36.421Z,21.00
2022-08-06T08:43:58.893Z,20.70
2022-08-06T08:44:35.119Z,20.41
2022-08-06T08:45:34.193Z,20.21
2022-08-06T08:46:37.794Z,20.04
2022-08-06T08:47:39.106Z,19.94
2022-08-06T08:48:35.609Z,19.97
2022-08-06T08:49:34.801Z,20.02
2022-08-06T08:50:34.890Z,19.95
2022-08-06T08:51:36.578Z,19.88
2022-08-06T08:52:36.103Z,19.89
2022-08-06T08:53:45.069Z,20.02
2022-08-06T08:54:36.400Z,20.21
2022-08-06T08:57:06.651Z,20.39
2022-08-06T08:57:10.097Z,20.56
2022-08-06T08:58:40.869Z,20.80
2022-08-06T08:59:01.887Z,21.07
2022-08-06T08:59:59.019Z,21.31
2022-08-06T09:00:37.140Z,21.42
2022-08-06T09:01:52.072Z,21.51
2022-08-06T09:02:37.470Z,21.65
2022-08-06T09:03:36.639Z,21.75
2022-08-06T09:04:36.691Z,21.85
2022-08-06T09:05:36.930Z,22.01
2022-08-06T09:06:39.660Z,22.16
2022-08-06T09:07:37.464Z,22.25
2022-08-06T09:08:58.861Z,22.30
2022-08-06T09:09:38.280Z,22.32
2022-08-06T09:10:38.589Z,22.32
2022-08-06T09:12:04.783Z,22.35
2022-08-06T09:12:45.976Z,22.42
2022-08-06T09:13:51.767Z,22.45
2022-08-06T09:14:38.849Z,22.47
2022-08-06T09:15:40.509Z,22.44
2022-08-06T09:16:38.190Z,22.33
2022-08-06T09:18:26.734Z,22.21
2022-08-06T09:18:39.359Z,22.05
2022-08-06T09:19:39.485Z,21.84
2022-08-06T09:20:45.765Z,21.51
2022-08-06T09:21:39.803Z,21.08
2022-08-06T09:22:38.873Z,20.75
2022-08-06T09:23:49.517Z,20.60
2022-08-06T09:24:40.341Z,20.58
2022-08-06T09:25:45.711Z,20.69
2022-08-06T09:26:54.178Z,20.79
2022-08-06T09:27:47.802Z,20.80
2022-08-06T09:28:40.607Z,20.74
2022-08-06T09:29:39.688Z,20.62
2022-08-06T09:30:40.816Z,20.40
2022-08-06T09:31:44.628Z,20.13
2022-08-06T09:32:56.800Z,19.88
2022-08-06T09:34:29.642Z,19.76
2022-08-06T09:34:50.372Z,19.83
2022-08-06T09:35:44.346Z,20.01
2022-08-06T09:36:40.621Z,20.21
2022-08-06T09:37:54.160Z,20.49
2022-08-06T09:38:42.034Z,20.81
2022-08-06T09:40:00.800Z,21.12
2022-08-06T09:40:43.273Z,21.38
2022-08-06T09:41:41.227Z,21.57
2022-08-06T09:42:41.351Z,21.72
2022-08-06T09:44:03.593Z,21.88
2022-08-06T09:44:42.687Z,22.00
2022-08-06T09:45:42.954Z,22.05
2022-08-06T09:46:41.876Z,22.03
2022-08-06T09:47:41.916Z,22.01
2022-08-06T09:48:47.691Z,22.08
2022-08-06T09:49:47.418Z,22.22
2022-08-06T09:50:44.050Z,22.38
2022-08-06T09:51:51.490Z,22.52
2022-08-06T09:52:43.546Z,22.56
2022-08-06T09:54:05.563Z,22.49
2022-08-06T09:54:43.837Z,22.29
2022-08-06T09:55:42.925Z,21.94
2022-08-06T09:56:44.955Z,21.51
2022-08-06T09:57:43.137Z,21.11
2022-08-06T09:58:43.435Z,20.83
2022-08-06T09:59:43.416Z,20.67
2022-08-06T10:00:46.406Z,20.60
2022-08-06T10:01:44.645Z,20.61
2022-08-06T10:02:50.962Z,20.69
2022-08-06T10:04:02.334Z,20.83
2022-08-06T10:04:45.042Z,20.91
2022-08-06T10:05:50.491Z,20.85
2022-08-06T10:06:45.226Z,20.68
2022-08-06T10:07:44.375Z,20.49
2022-08-06T10:08:49.552Z,20.30
2022-08-06T10:09:45.587Z,20.15
2022-08-06T10:10:45.145Z,20.08
2022-08-06T10:11:50.264Z,20.04
2022-08-06T10:12:45.966Z,19.99
2022-08-06T10:13:48.781Z,19.93
2022-08-06T10:14:45.164Z,19.83
2022-08-06T10:16:00.175Z,19.72
2022-08-06T10:16:46.456Z,19.64
2022-08-06T10:17:49.611Z,19.63
2022-08-06T10:18:55.190Z,19.72
2022-08-06T10:19:52.671Z,19.93
2022-08-06T10:20:48.205Z,20.26
2022-08-06T10:21:46.690Z,20.58
2022-08-06T10:22:46.263Z,20.88
2022-08-06T10:23:51.644Z,21.16
2022-08-06T10:24:48.663Z,21.46
2022-08-06T10:25:46.673Z,21.77
2022-08-06T10:26:46.964Z,22.01
2022-08-06T10:27:46.882Z,22.12
2022-08-06T10:28:47.985Z,22.08
2022-08-06T10:29:47.143Z,22.04
2022-08-06T10:30:47.253Z,22.10
2022-08-06T10:31:52.997Z,22.20
2022-08-06T10:32:48.464Z,22.34
2022-08-06T10:33:47.603Z,22.43
2022-08-06T10:34:48.746Z,22.33
2022-08-06T10:35:49.144Z,22.11
2022-08-06T10:36:48.998Z,21.89
2022-08-06T10:37:50.095Z,21.65
2022-08-06T10:38:52.778Z,21.41
2022-08-06T10:40:06.693Z,21.18
2022-08-06T10:40:57.251Z,20.93
2022-08-06T10:42:00.867Z,20.68
2022-08-06T10:42:49.722Z,20.57
2022-08-06T10:43:48.832Z,20.64
2022-08-06T10:44:48.942Z,20.86
2022-08-06T10:45:50.835Z,21.16
2022-08-06T10:46:49.184Z,21.48
2022-08-06T10:49:01.120Z,21.77
2022-08-06T10:50:23.906Z,21.94
2022-08-06T10:50:29.802Z,22.01
2022-08-06T10:50:56.180Z,22.05
2022-08-06T10:51:56.195Z,22.11
2022-08-06T10:52:51.113Z,22.24
2022-08-06T10:54:01.389Z,22.42
2022-08-06T10:54:51.765Z,22.58
2022-08-06T10:55:50.292Z,22.65
2022-08-06T10:56:50.372Z,22.54
2022-08-06T10:57:51.759Z,22.33
2022-08-06T10:58:50.641Z,22.21
2022-08-06T10:59:53.677Z,22.18
2022-08-06T11:00:53.213Z,22.13
2022-08-06T11:01:54.942Z,22.06
2022-08-06T11:02:56.556Z,22.07
2022-08-06T11:03:52.297Z,22.18
2022-08-06T11:04:51.321Z,22.37
2022-08-06T11:05:54.154Z,22.54
2022-08-06T11:06:52.814Z,22.64
2022-08-06T11:08:09.755Z,22.77
2022-08-06T11:08:59.254Z,22.93
2022-08-06T11:10:02.274Z,23.09
2022-08-06T11:10:53.160Z,23.18
2022-08-06T11:12:05.806Z,23.21
2022-08-06T11:12:53.310Z,23.31
2022-08-06T11:13:53.749Z,23.47
2022-08-06T11:14:52.617Z,23.66
2022-08-06T11:15:52.759Z,23.80
2022-08-06T11:16:52.940Z,23.87
2022-08-06T11:17:52.974Z,23.93
2022-08-06T11:18:53.136Z,23.99
2022-08-06T11:19:56.611Z,23.98
2022-08-06T11:20:53.379Z,23.82
2022-08-06T11:21:59.383Z,23.55
2022-08-06T11:22:59.705Z,23.32
2022-08-06T11:23:58.274Z,23.20
2022-08-06T11:24:54.827Z,23.15
2022-08-06T11:25:53.929Z,23.15
2022-08-06T11:27:01.450Z,23.24
2022-08-06T11:28:05.100Z,23.40
2022-08-06T11:28:55.318Z,23.56
2022-08-06T11:30:03.819Z,23.67
2022-08-06T11:30:55.587Z,23.68
2022-08-06T11:31:56.567Z,23.55
2022-08-06T11:32:54.815Z,23.35
2022-08-06T11:33:54.903Z,23.11
2022-08-06T11:34:55.036Z,22.88
2022-08-06T11:35:55.196Z,22.68
2022-08-06T11:36:57.649Z,22.51
2022-08-06T11:38:00.244Z,22.38
2022-08-06T11:38:59.385Z,22.22
2022-08-06T11:39:56.721Z,22.09
2022-08-06T11:40:55.792Z,22.03
2022-08-06T11:41:57.105Z,21.98
2022-08-06T11:42:55.972Z,21.90
2022-08-06T11:44:03.456Z,21.79
2022-08-06T11:44:58.836Z,21.60
2022-08-06T11:46:21.032Z,21.37
2022-08-06T11:46:57.488Z,21.21
2022-08-06T11:47:56.606Z,21.10
2022-08-06T11:48:56.727Z,21.04
2022-08-06T11:49:57.569Z,21.04
2022-08-06T11:50:56.986Z,21.08
2022-08-06T11:52:05.780Z,21.21
2022-08-06T11:52:58.295Z,21.39
2022-08-06T11:53:57.315Z,21.57
2022-08-06T11:54:57.435Z,21.75
2022-08-06T11:55:57.564Z,21.97
2022-08-06T11:56:57.675Z,22.21
2022-08-06T11:57:57.834Z,22.37
2022-08-06T11:58:57.945Z,22.45
2022-08-06T11:59:58.084Z,22.54
2022-08-06T12:00:58.225Z,22.71
2022-08-06T12:01:58.338Z,22.88
2022-08-06T12:02:58.529Z,22.94
2022-08-06T12:03:58.575Z,22.94
2022-08-06T12:04:58.704Z,22.92
2022-08-06T12:06:00.463Z,22.87
2022-08-06T12:06:58.942Z,22.77
2022-08-06T12:07:59.135Z,22.58
2022-08-06T12:08:59.195Z,22.35
2022-08-06T12:10:00.321Z,22.15
2022-08-06T12:10:59.455Z,22.03
2022-08-06T12:11:59.544Z,22.03
2022-08-06T12:12:59.814Z,22.15
2022-08-06T12:14:33.509Z,22.34
2022-08-06T12:15:06.626Z,22.53
2022-08-06T12:16:12.085Z,22.67
2022-08-06T12:17:02.762Z,22.73
2022-08-06T12:18:19.341Z,22.82
2022-08-06T12:19:01.474Z,22.88
2022-08-06T12:20:01.764Z,22.96
2022-08-06T12:21:00.754Z,23.11
2022-08-06T12:22:00.871Z,23.32
2022-08-06T12:23:01.015Z,23.49
2022-08-06T12:24:01.103Z,23.63
2022-08-06T12:25:09.825Z,23.74
2022-08-06T12:26:02.376Z,23.80
2022-08-06T12:27:01.513Z,23.82
2022-08-06T12:28:01.617Z,23.78
2022-08-06T12:29:01.804Z,23.75
2022-08-06T12:30:02.011Z,23.78
2022-08-06T12:31:06.022Z,23.84
2022-08-06T12:32:03.172Z,23.92
2022-08-06T12:33:02.214Z,23.99
2022-08-06T12:34:02.365Z,24.05
2022-08-06T12:35:02.642Z,24.05
2022-08-06T12:36:03.351Z,23.98
2022-08-06T12:37:02.731Z,23.93
2022-08-06T12:38:02.840Z,23.93
2022-08-06T12:39:02.995Z,24.01
2022-08-06T12:40:03.343Z,24.15
2022-08-06T12:41:09.587Z,24.31
2022-08-06T12:42:04.392Z,24.49
2022-08-06T12:43:03.532Z,24.63
2022-08-06T12:44:04.629Z,24.67
2022-08-06T12:45:03.782Z,24.60
2022-08-06T12:46:07.432Z,24.48
2022-08-06T12:47:05.109Z,24.35
2022-08-06T12:48:11.312Z,24.22
2022-08-06T12:49:05.263Z,24.11
2022-08-06T12:50:04.456Z,24.07
2022-08-06T12:51:11.559Z,24.12
2022-08-06T12:52:05.861Z,24.20
2022-08-06T12:53:04.791Z,24.18
2022-08-06T12:54:04.914Z,24.05
2022-08-06T12:55:05.032Z,23.91
2022-08-06T12:56:06.967Z,23.73